Time;durP1;ratioP1;P1;durP2;ratioP2;P2;SDS_P1;SDS_P2;PMS_P1;PMS_P2;Temp;Humidity;BMP_temperature;BMP_pressure;BME280_temperature;BME280_humidity;BME280_pressure;Samples;Min_cycle;Max_cycle;Signal;HPM_P1;HPM_P2
2022/08/19 00:01:53;;;;;;;11.55;9.35;;;15.80;99.90;;;;;;5085986;28;20055;-73
2022/08/19 00:04:24;;;;;;;7.80;7.00;;;15.70;99.90;;;;;;5089266;28;20424;-72
2022/08/19 00:06:51;;;;;;;10.18;8.82;;;15.70;99.90;;;;;;5088574;28;20055;-72
2022/08/19 00:09:19;;;;;;;11.13;7.10;;;15.70;99.90;;;;;;5090596;28;20158;-72
2022/08/19 00:11:44;;;;;;;8.02;7.22;;;15.60;99.90;;;;;;5089266;28;20062;-72
2022/08/19 00:14:13;;;;;;;7.43;5.25;;;15.60;99.90;;;;;;5108479;28;20047;-72
2022/08/19 00:16:41;;;;;;;6.32;5.80;;;15.50;99.90;;;;;;5087450;28;20055;-72
2022/08/19 00:19:07;;;;;;;6.65;6.00;;;15.40;99.90;;;;;;5089691;28;20048;-72
2022/08/19 00:21:38;;;;;;;6.75;5.03;;;15.40;99.90;;;;;;5089248;28;20035;-72
2022/08/19 00:24:03;;;;;;;5.07;4.57;;;15.30;99.90;;;;;;5088378;28;20055;-72
2022/08/19 00:26:30;;;;;;;9.68;8.27;;;15.30;99.90;;;;;;5084359;28;20511;-72
2022/08/19 00:28:56;;;;;;;11.45;9.90;;;15.30;99.90;;;;;;5104779;28;20082;-72
2022/08/19 00:31:22;;;;;;;9.10;8.07;;;15.30;99.90;;;;;;5089362;28;20508;-72
2022/08/19 00:33:50;;;;;;;12.65;10.35;;;15.20;99.90;;;;;;5085895;28;20051;-72
2022/08/19 00:36:17;;;;;;;11.65;10.48;;;15.20;99.90;;;;;;5107800;28;20071;-72
2022/08/19 00:38:43;;;;;;;13.20;11.43;;;15.20;99.90;;;;;;5086360;28;20072;-72
2022/08/19 00:41:20;;;;;;;13.07;10.85;;;15.20;99.90;;;;;;5083891;28;20201;-72
2022/08/19 00:44:10;;;;;;;12.57;10.32;;;15.20;99.90;;;;;;5086533;28;20063;-72
2022/08/19 00:46:39;;;;;;;8.93;7.20;;;15.20;99.90;;;;;;5076726;28;20040;-72
2022/08/19 00:49:32;;;;;;;3.53;3.22;;;15.10;99.90;;;;;;5100943;28;20040;-72
2022/08/19 00:52:06;;;;;;;10.25;8.30;;;15.00;99.90;;;;;;5081389;28;20047;-72
2022/08/19 00:54:32;;;;;;;16.25;14.05;;;14.80;99.90;;;;;;5106969;28;20048;-72
2022/08/19 00:57:01;;;;;;;9.93;8.80;;;14.80;99.90;;;;;;5089615;28;20484;-72
2022/08/19 00:59:28;;;;;;;15.80;12.07;;;14.70;99.90;;;;;;5072355;28;20056;-72
2022/08/19 01:01:54;;;;;;;12.25;11.00;;;14.60;99.90;;;;;;5065726;28;20127;-72
2022/08/19 01:04:19;;;;;;;14.50;10.73;;;14.50;99.90;;;;;;5065562;28;20396;-72
2022/08/19 01:06:45;;;;;;;12.73;10.40;;;14.50;99.90;;;;;;5065478;28;20041;-72
2022/08/19 01:09:11;;;;;;;13.13;9.98;;;14.50;99.90;;;;;;5066246;28;20044;-72
2022/08/19 01:11:44;;;;;;;12.05;9.65;;;14.60;99.90;;;;;;5066153;28;20485;-72
2022/08/19 01:14:10;;;;;;;7.65;6.63;;;14.60;99.90;;;;;;5065301;28;20052;-73
2022/08/19 01:16:40;;;;;;;6.57;5.97;;;14.60;99.90;;;;;;5064942;28;20072;-72
2022/08/19 01:19:19;;;;;;;6.35;5.63;;;14.60;99.90;;;;;;5066136;28;20056;-72
2022/08/19 01:21:53;;;;;;;10.60;7.78;;;14.60;99.90;;;;;;5065512;28;20159;-72
2022/08/19 01:24:19;;;;;;;9.68;8.68;;;14.60;99.90;;;;;;5065573;28;20040;-72
2022/08/19 01:26:47;;;;;;;10.43;9.10;;;14.50;99.90;;;;;;5061998;28;20057;-72
2022/08/19 01:29:13;;;;;;;10.63;9.55;;;14.50;99.90;;;;;;5060341;28;20091;-71
2022/08/19 01:31:39;;;;;;;11.90;10.52;;;14.50;99.90;;;;;;5057764;28;20056;-72
2022/08/19 01:34:06;;;;;;;11.73;9.82;;;14.60;99.90;;;;;;5063259;28;20040;-71
2022/08/19 01:36:34;;;;;;;13.48;10.18;;;14.50;99.90;;;;;;5064336;28;20135;-71
2022/08/19 01:39:03;;;;;;;11.02;9.00;;;14.50;99.90;;;;;;5055211;28;20045;-71
2022/08/19 01:41:29;;;;;;;8.30;7.50;;;14.50;99.90;;;;;;5065451;28;20032;-71
2022/08/19 01:43:55;;;;;;;8.05;7.25;;;14.50;99.90;;;;;;5067130;28;20295;-72
2022/08/19 01:46:21;;;;;;;7.38;6.68;;;14.40;99.90;;;;;;5069782;28;20074;-72
2022/08/19 01:48:47;;;;;;;6.25;5.75;;;14.40;99.90;;;;;;5070221;28;20076;-72
2022/08/19 01:51:13;;;;;;;7.22;6.32;;;14.40;99.90;;;;;;5067765;28;20074;-73
2022/08/19 01:53:40;;;;;;;6.20;5.60;;;14.40;99.90;;;;;;5056454;28;20056;-73
2022/08/19 01:56:06;;;;;;;8.07;7.10;;;14.40;99.90;;;;;;5069632;28;20055;-73
2022/08/19 01:58:38;;;;;;;7.85;7.10;;;14.30;99.90;;;;;;5080756;28;20741;-72
2022/08/19 02:01:05;;;;;;;8.90;8.00;;;14.30;99.90;;;;;;5105913;28;20066;-73
2022/08/19 02:03:31;;;;;;;7.87;7.07;;;14.30;99.90;;;;;;5091013;28;20042;-72
2022/08/19 02:05:59;;;;;;;7.97;7.15;;;14.30;99.90;;;;;;5107743;28;20043;-72
2022/08/19 02:08:26;;;;;;;14.30;8.93;;;14.20;99.90;;;;;;5096290;28;20032;-72
2022/08/19 02:10:52;;;;;;;5.97;5.30;;;14.20;99.90;;;;;;5109887;28;20027;-73
2022/08/19 02:13:18;;;;;;;5.18;4.47;;;14.10;99.90;;;;;;5110588;28;20519;-74
2022/08/19 02:15:44;;;;;;;4.95;4.30;;;14.00;99.90;;;;;;5110195;28;20048;-73
2022/08/19 02:18:10;;;;;;;7.13;5.28;;;13.90;99.90;;;;;;5108538;28;20059;-73
2022/08/19 02:20:38;;;;;;;11.50;7.53;;;13.80;99.90;;;;;;5104572;28;20032;-73
2022/08/19 02:23:05;;;;;;;9.50;7.13;;;13.80;99.90;;;;;;5101264;28;20043;-72
2022/08/19 02:25:31;;;;;;;7.90;7.10;;;13.70;99.90;;;;;;5081976;28;20049;-73
2022/08/19 02:27:56;;;;;;;8.57;7.75;;;13.80;99.90;;;;;;5110411;28;20040;-73
2022/08/19 02:30:24;;;;;;;10.70;9.60;;;13.80;99.90;;;;;;5103893;28;20609;-73
2022/08/19 02:32:50;;;;;;;12.85;9.90;;;13.80;99.90;;;;;;5102755;28;20082;-73
2022/08/19 02:35:17;;;;;;;11.77;10.05;;;13.80;99.90;;;;;;5108021;27;20044;-73
2022/08/19 02:40:29;;;;;;;9.15;8.27;;;13.90;99.90;;;;;;5090098;28;20062;-73
2022/08/19 02:42:55;;;;;;;8.32;7.50;;;13.80;99.90;;;;;;5089267;28;20524;-73
2022/08/19 02:45:21;;;;;;;9.25;8.25;;;13.90;99.90;;;;;;5087211;28;20044;-73
2022/08/19 02:47:47;;;;;;;12.73;10.32;;;13.90;99.90;;;;;;5090884;28;20123;-73
2022/08/19 02:50:13;;;;;;;12.70;10.60;;;13.80;99.90;;;;;;5091297;28;20841;-72
2022/08/19 02:52:39;;;;;;;12.05;10.43;;;13.80;99.90;;;;;;5090782;28;20508;-73
2022/08/19 02:55:06;;;;;;;12.65;10.77;;;13.80;99.90;;;;;;5090807;28;20031;-73
2022/08/19 02:57:31;;;;;;;12.98;10.52;;;13.80;99.90;;;;;;5090898;27;20107;-73
2022/08/19 02:59:58;;;;;;;16.38;13.18;;;13.80;99.90;;;;;;5088798;28;20119;-73
2022/08/19 03:02:24;;;;;;;11.88;10.52;;;13.80;99.90;;;;;;5090138;28;20059;-73
2022/08/19 03:04:50;;;;;;;10.18;9.05;;;13.70;99.90;;;;;;5087571;28;20119;-73
2022/08/19 03:07:17;;;;;;;10.13;8.27;;;13.70;99.90;;;;;;5078777;28;20916;-72
2022/08/19 03:09:42;;;;;;;9.02;7.47;;;13.70;99.90;;;;;;5078064;28;20134;-72
2022/08/19 03:12:09;;;;;;;9.60;8.63;;;13.70;99.90;;;;;;5090050;28;20054;-72
2022/08/19 03:14:35;;;;;;;9.20;8.27;;;13.70;99.90;;;;;;5090287;28;20047;-73
2022/08/19 03:17:03;;;;;;;10.50;8.30;;;13.60;99.90;;;;;;5108265;28;20095;-72
2022/08/19 03:19:28;;;;;;;10.65;8.85;;;13.60;99.90;;;;;;5103654;28;20048;-72
2022/08/19 03:21:55;;;;;;;11.45;10.18;;;13.60;99.90;;;;;;5081903;28;20119;-73
2022/08/19 03:24:21;;;;;;;9.23;8.32;;;13.60;99.90;;;;;;5090427;28;20065;-72
2022/08/19 03:26:49;;;;;;;9.32;8.43;;;13.60;99.90;;;;;;5081330;28;20095;-72
2022/08/19 03:29:16;;;;;;;9.18;8.27;;;13.60;99.90;;;;;;5081881;28;20117;-72
2022/08/19 03:31:43;;;;;;;10.43;9.18;;;13.60;99.90;;;;;;5064733;28;20048;-72
2022/08/19 03:34:14;;;;;;;9.77;8.80;;;13.60;99.90;;;;;;5086449;28;20093;-72
2022/08/19 03:36:41;;;;;;;7.32;6.63;;;13.60;99.90;;;;;;5098659;28;20032;-72
2022/08/19 03:39:08;;;;;;;8.85;7.97;;;13.60;99.90;;;;;;5103929;28;20044;-72
2022/08/19 03:41:38;;;;;;;8.00;7.28;;;13.60;99.90;;;;;;5089593;28;20044;-72
2022/08/19 03:44:04;;;;;;;10.13;7.53;;;13.60;99.90;;;;;;5090253;28;20120;-72
2022/08/19 03:46:32;;;;;;;8.68;7.78;;;13.50;99.90;;;;;;5084967;28;20047;-71
2022/08/19 03:49:00;;;;;;;8.38;7.50;;;13.50;99.90;;;;;;5088756;28;20442;-72
2022/08/19 03:51:30;;;;;;;10.98;9.80;;;13.50;99.90;;;;;;5089189;28;20122;-72
2022/08/19 03:53:58;;;;;;;9.02;7.40;;;13.50;99.90;;;;;;5087619;28;20075;-72
2022/08/19 03:56:30;;;;;;;10.38;9.20;;;13.50;99.90;;;;;;5082612;28;20093;-72
2022/08/19 03:58:57;;;;;;;11.23;8.80;;;13.50;99.90;;;;;;5089689;28;20055;-72
2022/08/19 04:01:29;;;;;;;12.13;10.05;;;13.50;99.90;;;;;;5089892;28;20059;-74
2022/08/19 04:03:59;;;;;;;19.20;11.73;;;13.40;99.90;;;;;;5079510;28;20039;-74
2022/08/19 04:06:31;;;;;;;13.73;10.45;;;13.40;99.90;;;;;;5085558;28;20569;-74
2022/08/19 04:08:59;;;;;;;14.18;10.98;;;13.40;99.90;;;;;;5087922;28;20579;-74
2022/08/19 04:11:28;;;;;;;15.57;10.35;;;13.40;99.90;;;;;;5095481;28;20055;-74
2022/08/19 04:13:55;;;;;;;12.90;9.15;;;13.40;99.90;;;;;;5103802;28;20561;-74
2022/08/19 04:16:23;;;;;;;12.82;8.93;;;13.40;99.90;;;;;;5089808;28;20047;-74
2022/08/19 04:18:49;;;;;;;17.92;9.90;;;13.40;99.90;;;;;;5077700;28;20400;-74
2022/08/19 04:21:21;;;;;;;13.73;9.98;;;13.40;99.90;;;;;;5085811;28;20043;-74
2022/08/19 04:23:47;;;;;;;19.40;10.32;;;13.40;99.90;;;;;;5082945;28;20509;-75
2022/08/19 04:26:15;;;;;;;13.77;9.60;;;13.40;99.90;;;;;;5080744;28;20047;-75
2022/08/19 04:28:42;;;;;;;12.05;9.75;;;13.40;99.90;;;;;;5081529;28;20123;-74
2022/08/19 04:31:16;;;;;;;12.93;10.02;;;13.40;99.90;;;;;;5083965;28;20051;-74
2022/08/19 04:33:42;;;;;;;15.43;10.55;;;13.30;99.90;;;;;;5081498;28;20039;-74
2022/08/19 04:36:16;;;;;;;12.73;9.57;;;13.30;99.90;;;;;;5080589;28;20058;-74
2022/08/19 04:38:41;;;;;;;12.43;10.32;;;13.30;99.90;;;;;;5105868;28;20052;-75
2022/08/19 04:43:51;;;;;;;11.80;9.45;;;13.30;99.90;;;;;;5075692;28;20122;-75
2022/08/19 04:46:17;;;;;;;12.32;10.13;;;13.30;99.90;;;;;;5104600;28;20130;-75
2022/08/19 04:48:43;;;;;;;12.43;9.43;;;13.30;99.90;;;;;;5103160;28;20516;-75
2022/08/19 04:51:12;;;;;;;11.80;8.80;;;13.30;99.90;;;;;;5107065;28;20408;-75
2022/08/19 04:53:41;;;;;;;11.90;8.25;;;13.40;99.90;;;;;;5089818;28;20044;-75
2022/08/19 04:56:11;;;;;;;13.35;9.35;;;13.30;99.90;;;;;;5090469;28;20136;-75
2022/08/19 04:58:39;;;;;;;13.75;10.70;;;13.40;99.90;;;;;;5082336;28;20159;-74
2022/08/19 05:01:05;;;;;;;12.40;10.60;;;13.40;99.90;;;;;;5086626;28;20378;-74
2022/08/19 05:03:33;;;;;;;13.25;9.90;;;13.30;99.90;;;;;;5085576;28;20077;-73
2022/08/19 05:06:04;;;;;;;13.43;10.38;;;13.30;99.90;;;;;;5082544;28;20484;-73
2022/08/19 05:08:30;;;;;;;10.90;8.68;;;13.30;99.90;;;;;;5087275;28;20050;-73
2022/08/19 05:10:57;;;;;;;11.32;9.05;;;13.40;99.90;;;;;;5085347;28;20048;-73
2022/08/19 05:13:23;;;;;;;9.90;8.40;;;13.40;99.90;;;;;;5083904;28;20055;-73
2022/08/19 05:15:57;;;;;;;12.95;9.88;;;13.40;99.90;;;;;;5086053;28;20052;-73
2022/08/19 05:23:58;;;;;;;12.15;8.45;;;13.50;99.90;;;;;;5088793;28;20052;-73
2022/08/19 05:26:25;;;;;;;10.13;7.63;;;13.60;99.90;;;;;;5084433;28;20439;-73
2022/08/19 05:28:52;;;;;;;11.02;9.27;;;13.70;99.90;;;;;;5089718;28;20529;-72
2022/08/19 05:31:19;;;;;;;15.57;10.02;;;13.70;99.90;;;;;;5085202;28;20051;-72
2022/08/19 05:33:46;;;;;;;12.90;9.13;;;13.80;99.90;;;;;;5091541;28;20462;-72
2022/08/19 05:36:13;;;;;;;10.63;9.40;;;13.90;99.90;;;;;;5088934;28;20052;-73
2022/08/19 05:38:38;;;;;;;13.60;10.40;;;14.00;99.90;;;;;;5088157;28;20044;-73
2022/08/19 05:41:12;;;;;;;16.48;11.82;;;14.10;99.90;;;;;;5080015;28;20090;-73
2022/08/19 05:43:38;;;;;;;11.63;8.88;;;14.20;99.90;;;;;;5084816;28;20036;-72
2022/08/19 05:46:07;;;;;;;17.30;13.88;;;14.30;99.90;;;;;;5090512;28;20105;-73
2022/08/19 05:48:36;;;;;;;15.98;12.68;;;14.40;99.90;;;;;;5090088;28;20048;-72
2022/08/19 05:51:08;;;;;;;18.25;13.57;;;14.50;99.90;;;;;;5076025;28;20047;-73
2022/08/19 05:53:35;;;;;;;20.05;14.75;;;14.60;99.90;;;;;;5087725;28;20077;-73
2022/08/19 05:56:13;;;;;;;18.95;13.82;;;14.60;99.90;;;;;;5083227;28;20512;-73
2022/08/19 05:58:39;;;;;;;23.52;17.23;;;14.70;99.90;;;;;;5072498;28;20045;-73
2022/08/19 06:01:11;;;;;;;19.60;15.88;;;14.80;99.90;;;;;;5089230;28;20374;-72
2022/08/19 06:03:37;;;;;;;30.15;20.13;;;14.80;99.90;;;;;;5084092;28;20044;-72
2022/08/19 06:06:04;;;;;;;35.45;21.92;;;14.90;99.90;;;;;;5085319;28;20504;-72
2022/08/19 06:08:30;;;;;;;32.55;22.02;;;15.00;99.90;;;;;;5088692;28;20715;-71
2022/08/19 06:10:55;;;;;;;31.55;22.80;;;15.10;99.90;;;;;;5090216;28;20044;-71
2022/08/19 06:13:23;;;;;;;32.20;21.27;;;15.10;99.90;;;;;;5084296;28;20404;-71
2022/08/19 06:15:49;;;;;;;30.15;21.45;;;15.20;99.90;;;;;;5090109;28;20036;-72
2022/08/19 06:18:15;;;;;;;32.42;23.92;;;15.30;99.90;;;;;;5083754;28;20047;-72
2022/08/19 06:20:41;;;;;;;29.33;22.13;;;15.50;99.90;;;;;;5088519;28;20048;-69
2022/08/19 06:23:08;;;;;;;31.52;22.60;;;15.60;99.90;;;;;;5085944;28;20036;-70
2022/08/19 06:25:34;;;;;;;34.60;24.35;;;15.60;99.90;;;;;;5084615;28;20087;-70
2022/08/19 06:28:00;;;;;;;34.90;24.35;;;15.70;99.90;;;;;;5082812;28;20050;-71
2022/08/19 06:30:26;;;;;;;34.03;25.55;;;15.90;99.90;;;;;;5082649;28;20040;-71
2022/08/19 06:32:52;;;;;;;31.75;22.65;;;15.90;99.90;;;;;;5085109;28;20449;-71
2022/08/19 06:35:19;;;;;;;34.55;24.27;;;16.10;99.90;;;;;;5089887;28;20067;-71
2022/08/19 06:37:45;;;;;;;35.85;23.90;;;16.10;99.90;;;;;;5089443;28;20140;-71
2022/08/19 06:40:12;;;;;;;36.22;23.67;;;16.20;99.90;;;;;;5089023;28;20165;-71
2022/08/19 06:42:38;;;;;;;39.33;23.58;;;16.30;99.90;;;;;;5087029;28;20499;-71
2022/08/19 06:45:05;;;;;;;38.88;24.27;;;16.40;99.90;;;;;;5088277;28;20408;-71
2022/08/19 06:47:34;;;;;;;31.20;23.67;;;16.40;99.90;;;;;;5064961;28;20049;-71
2022/08/19 06:50:02;;;;;;;36.15;24.25;;;16.50;99.90;;;;;;5080826;28;20404;-71
2022/08/19 06:52:30;;;;;;;29.70;19.75;;;16.60;99.90;;;;;;5090363;28;20048;-71
2022/08/19 06:54:57;;;;;;;31.60;22.38;;;16.70;99.90;;;;;;5088586;28;20109;-71
2022/08/19 06:57:24;;;;;;;25.42;21.42;;;16.90;99.90;;;;;;5087557;28;20055;-71
2022/08/19 06:59:50;;;;;;;25.70;20.47;;;17.10;99.90;;;;;;5086738;28;20196;-72
2022/08/19 07:02:17;;;;;;;22.33;19.15;;;17.30;99.90;;;;;;5087912;28;21028;-72
2022/08/19 07:04:42;;;;;;;22.13;18.50;;;17.50;99.90;;;;;;5083896;28;20055;-71
2022/08/19 07:07:13;;;;;;;23.52;17.88;;;17.70;99.90;;;;;;5086079;28;20044;-72
2022/08/19 07:09:42;;;;;;;21.17;17.77;;;18.00;99.90;;;;;;5076552;28;20071;-72
2022/08/19 07:12:11;;;;;;;26.27;17.35;;;18.40;99.90;;;;;;5085941;28;20524;-71
2022/08/19 07:14:38;;;;;;;25.23;17.95;;;18.70;99.90;;;;;;5085212;28;20062;-72
2022/08/19 07:17:10;;;;;;;22.83;17.47;;;19.20;99.90;;;;;;5088933;28;20126;-72
2022/08/19 07:19:38;;;;;;;20.60;15.60;;;19.50;99.90;;;;;;5085714;28;20373;-72
2022/08/19 07:22:05;;;;;;;19.92;15.38;;;20.00;99.90;;;;;;5086809;28;20048;-72
2022/08/19 07:24:32;;;;;;;15.30;13.70;;;20.30;99.90;;;;;;5086488;28;20048;-72
2022/08/19 07:27:01;;;;;;;20.60;15.88;;;20.70;99.90;;;;;;5084571;28;20409;-72
2022/08/19 07:29:28;;;;;;;16.08;14.48;;;21.10;99.90;;;;;;5084105;28;20055;-71
2022/08/19 07:31:56;;;;;;;14.65;12.57;;;21.40;99.90;;;;;;5083832;28;20059;-71
2022/08/19 07:34:23;;;;;;;18.38;14.55;;;21.70;99.90;;;;;;5088055;28;20047;-72
2022/08/19 07:36:50;;;;;;;14.15;12.55;;;22.00;99.90;;;;;;5088902;28;20040;-72
2022/08/19 07:39:22;;;;;;;20.42;14.95;;;22.30;99.90;;;;;;5088977;28;20044;-72
2022/08/19 07:41:48;;;;;;;14.40;12.93;;;22.50;99.90;;;;;;5075927;28;20048;-73
2022/08/19 07:44:15;;;;;;;15.43;12.48;;;22.80;99.90;;;;;;5089240;28;20400;-73
2022/08/19 07:46:45;;;;;;;14.70;12.55;;;23.00;99.90;;;;;;5088259;28;20455;-73
2022/08/19 07:49:17;;;;;;;13.73;12.27;;;23.20;99.90;;;;;;5083424;28;20036;-73
2022/08/19 07:51:44;;;;;;;16.67;13.93;;;23.40;99.90;;;;;;5086280;28;20531;-72
2022/08/19 07:54:11;;;;;;;18.67;14.15;;;23.50;99.90;;;;;;5073136;28;20040;-73
2022/08/19 07:56:37;;;;;;;17.80;14.68;;;23.80;99.90;;;;;;5086101;28;20079;-73
2022/08/19 07:59:03;;;;;;;17.42;12.18;;;24.00;99.90;;;;;;5082490;28;20105;-73
2022/08/19 08:01:28;;;;;;;16.65;13.30;;;24.20;99.90;;;;;;5081141;28;20087;-72
2022/08/19 08:09:32;;;;;;;16.42;13.73;;;24.80;99.90;;;;;;5082581;28;19920;-73
2022/08/19 08:12:00;;;;;;;18.00;16.02;;;24.90;99.90;;;;;;5086832;28;20051;-73
2022/08/19 08:14:36;;;;;;;15.32;13.73;;;24.90;99.90;;;;;;5083671;28;20501;-73
2022/08/19 08:17:05;;;;;;;12.77;11.38;;;25.10;99.90;;;;;;5082448;28;20052;-72
2022/08/19 08:19:30;;;;;;;15.85;14.07;;;25.30;99.90;;;;;;5086691;28;20055;-73
2022/08/19 08:21:58;;;;;;;14.85;12.98;;;25.50;99.90;;;;;;5082215;28;20036;-72
2022/08/19 08:24:25;;;;;;;14.05;11.68;;;25.50;99.90;;;;;;5081184;28;20058;-72
2022/08/19 08:26:51;;;;;;;;;;;25.70;99.90;;;;;;5081683;28;20036;-73
2022/08/19 08:29:16;;;;;;;13.57;12.23;;;25.60;99.90;;;;;;5086877;28;19989;-71
2022/08/19 08:31:44;;;;;;;13.70;12.07;;;26.00;99.90;;;;;;5084775;28;20050;-73
2022/08/19 08:34:12;;;;;;;17.65;13.82;;;26.20;99.90;;;;;;5076834;28;20052;-72
2022/08/19 08:36:41;;;;;;;;;;;26.30;99.90;;;;;;5084111;28;20070;-71
2022/08/19 08:39:17;;;;;;;14.57;13.18;;;26.30;99.90;;;;;;5086065;28;19950;-71
2022/08/19 08:42:25;;;;;;;13.20;11.32;;;26.40;99.90;;;;;;5075775;28;20054;-72
2022/08/19 08:45:05;;;;;;;15.13;11.45;;;26.70;99.90;;;;;;5084664;28;20052;-72
2022/08/19 08:47:37;;;;;;;10.98;9.88;;;26.70;99.90;;;;;;5072389;28;20050;-71
2022/08/19 08:50:14;;;;;;;13.90;11.57;;;26.80;99.90;;;;;;5081564;28;20058;-72
2022/08/19 08:52:45;;;;;;;11.98;8.95;;;26.90;99.90;;;;;;5083025;28;20045;-72
2022/08/19 08:55:19;;;;;;;12.30;11.02;;;27.10;99.90;;;;;;5088980;28;20048;-72
2022/08/19 08:57:48;;;;;;;9.77;8.77;;;27.20;99.90;;;;;;5090821;28;20063;-72
2022/08/19 09:00:26;;;;;;;14.18;11.15;;;27.40;99.90;;;;;;5090078;28;20617;-72
2022/08/19 09:02:57;;;;;;;9.25;8.30;;;27.50;99.90;;;;;;5091400;28;20130;-72
2022/08/19 09:05:26;;;;;;;10.48;8.30;;;27.70;99.90;;;;;;5084594;28;20127;-72
2022/08/19 09:08:08;;;;;;;10.60;8.40;;;27.70;99.90;;;;;;5089083;28;20047;-71
2022/08/19 09:10:53;;;;;;;9.32;8.52;;;27.90;99.90;;;;;;5091934;28;20036;-72
2022/08/19 09:13:42;;;;;;;11.98;10.80;;;27.70;99.90;;;;;;5085853;28;20482;-72
2022/08/19 09:16:12;;;;;;;9.18;7.90;;;27.70;99.90;;;;;;5060991;28;20079;-72
2022/08/19 09:18:42;;;;;;;8.93;8.00;;;27.80;99.90;;;;;;5090160;28;20061;-72
2022/08/19 09:21:08;;;;;;;8.68;7.82;;;27.70;99.90;;;;;;5084771;28;20123;-73
2022/08/19 09:23:35;;;;;;;9.55;8.55;;;27.80;99.90;;;;;;5082331;28;20048;-72
2022/08/19 09:26:02;;;;;;;10.38;8.75;;;28.00;99.90;;;;;;5086136;28;20161;-72
2022/08/19 09:28:28;;;;;;;18.47;9.20;;;28.00;99.90;;;;;;5082567;28;20048;-73
2022/08/19 09:30:54;;;;;;;13.07;11.88;;;28.10;99.90;;;;;;5090692;28;20059;-72
2022/08/19 09:33:20;;;;;;;12.55;10.13;;;28.20;99.90;;;;;;5075368;28;20044;-72
2022/08/19 09:35:46;;;;;;;11.73;9.10;;;28.20;99.90;;;;;;5084421;28;20400;-73
2022/08/19 09:38:11;;;;;;;11.95;10.70;;;28.20;99.90;;;;;;5080499;28;20071;-73
2022/08/19 09:40:38;;;;;;;10.43;9.40;;;28.20;99.90;;;;;;5091932;28;20119;-72
2022/08/19 09:43:04;;;;;;;12.45;10.57;;;28.20;99.90;;;;;;5089865;28;20047;-72
2022/08/19 09:45:30;;;;;;;10.40;9.40;;;28.30;99.90;;;;;;5082454;28;20516;-72
2022/08/19 09:47:56;;;;;;;11.57;10.05;;;28.50;99.90;;;;;;5091388;28;20467;-72
2022/08/19 09:50:23;;;;;;;11.25;9.95;;;28.70;98.30;;;;;;5088959;28;20040;-73
2022/08/19 09:52:49;;;;;;;12.40;11.18;;;28.60;99.50;;;;;;5090420;28;20048;-72
2022/08/19 09:55:15;;;;;;;12.63;9.88;;;28.60;96.60;;;;;;5087844;28;20093;-72
2022/08/19 09:57:41;;;;;;;13.02;11.65;;;28.70;97.70;;;;;;5090128;28;20501;-72
2022/08/19 10:00:08;;;;;;;15.13;13.52;;;28.70;94.50;;;;;;5070741;28;20080;-72
2022/08/19 10:02:34;;;;;;;13.25;11.93;;;28.70;93.20;;;;;;5071290;28;20037;-72
2022/08/19 10:07:45;;;;;;;11.65;10.52;;;28.70;92.60;;;;;;5066592;28;20082;-71
2022/08/19 10:10:11;;;;;;;13.02;11.73;;;28.90;91.10;;;;;;5066069;28;20049;-72
2022/08/19 10:12:36;;;;;;;9.63;8.52;;;29.00;87.80;;;;;;5068986;28;20051;-73
2022/08/19 10:15:05;;;;;;;13.43;10.23;;;29.00;92.00;;;;;;5069090;28;20074;-72
2022/08/19 10:17:33;;;;;;;12.43;10.38;;;29.00;91.20;;;;;;5066095;28;20540;-73
2022/08/19 10:19:59;;;;;;;15.00;13.25;;;29.10;86.80;;;;;;5065820;28;20406;-73
2022/08/19 10:22:25;;;;;;;11.30;10.18;;;29.10;80.10;;;;;;5062472;28;20037;-73
2022/08/19 10:24:51;;;;;;;14.63;12.80;;;29.00;86.40;;;;;;5067604;28;20109;-73
2022/08/19 10:27:17;;;;;;;13.48;12.07;;;29.20;86.90;;;;;;5064627;28;20048;-73
2022/08/19 10:29:43;;;;;;;10.90;9.70;;;29.10;86.50;;;;;;5068269;28;20090;-73
2022/08/19 10:32:09;;;;;;;12.43;11.25;;;29.20;92.00;;;;;;5065900;28;20076;-73
2022/08/19 10:34:37;;;;;;;14.98;12.13;;;29.20;83.10;;;;;;5070049;28;20394;-73
2022/08/19 10:37:05;;;;;;;10.25;9.20;;;29.10;82.00;;;;;;5066573;28;20033;-73
2022/08/19 10:39:33;;;;;;;13.48;11.55;;;29.10;85.60;;;;;;5067298;28;20406;-73
2022/08/19 10:41:59;;;;;;;13.60;12.27;;;29.40;84.60;;;;;;5061821;28;20119;-73
2022/08/19 10:44:28;;;;;;;10.23;9.23;;;29.20;77.90;;;;;;5069210;28;20127;-74
2022/08/19 10:46:55;;;;;;;11.75;10.65;;;29.40;76.10;;;;;;5068033;28;20053;-73
2022/08/19 10:49:23;;;;;;;13.95;12.48;;;29.40;70.40;;;;;;5069016;28;20036;-72
2022/08/19 10:57:18;;;;;;;17.77;13.82;;;29.50;74.90;;;;;;5062493;28;20041;-74
2022/08/19 10:59:44;;;;;;;14.13;12.05;;;29.40;74.90;;;;;;5097043;28;20094;-74
2022/08/19 11:02:11;;;;;;;14.15;12.75;;;29.50;72.00;;;;;;5107828;28;20440;-73
2022/08/19 11:04:39;;;;;;;15.38;13.80;;;29.50;71.90;;;;;;5106445;28;20081;-74
2022/08/19 11:07:05;;;;;;;;;;;29.50;71.90;;;;;;5090798;28;20086;-74
2022/08/19 11:09:31;;;;;;;18.40;11.95;;;29.40;66.80;;;;;;5088631;28;19974;-74
2022/08/19 11:11:57;;;;;;;16.42;13.88;;;29.20;71.50;;;;;;5091115;28;20122;-74
2022/08/19 11:14:25;;;;;;;14.55;12.50;;;29.20;70.90;;;;;;5078860;28;20040;-75
2022/08/19 11:16:55;;;;;;;14.10;12.80;;;29.20;72.00;;;;;;5088711;28;20059;-74
2022/08/19 11:19:23;;;;;;;15.60;12.82;;;29.30;70.50;;;;;;5091958;28;20056;-74
2022/08/19 11:21:50;;;;;;;16.48;12.25;;;29.10;72.90;;;;;;5096873;28;20047;-72
2022/08/19 11:24:21;;;;;;;21.83;15.05;;;29.20;75.50;;;;;;5116152;27;20418;-73
2022/08/19 11:26:49;;;;;;;13.50;12.15;;;29.10;73.00;;;;;;5110250;28;20068;-74
2022/08/19 11:29:16;;;;;;;13.98;12.70;;;29.30;76.20;;;;;;5102191;28;20071;-74
2022/08/19 11:31:43;;;;;;;14.57;13.00;;;29.30;73.70;;;;;;5089259;28;20048;-73
2022/08/19 11:34:13;;;;;;;16.15;14.65;;;29.60;73.20;;;;;;5103138;27;20180;-74
2022/08/19 11:36:42;;;;;;;16.15;14.63;;;29.60;69.60;;;;;;5105867;28;20563;-74
2022/08/19 11:39:09;;;;;;;15.75;12.18;;;29.60;66.10;;;;;;5087751;28;20564;-74
2022/08/19 11:41:35;;;;;;;;;;;29.50;69.00;;;;;;5083042;28;20051;-73
2022/08/19 11:44:02;;;;;;;16.27;14.73;;;29.50;66.80;;;;;;5100358;28;19924;-74
2022/08/19 11:46:29;;;;;;;13.52;12.38;;;29.50;66.20;;;;;;5090349;28;20043;-74
2022/08/19 11:48:56;;;;;;;14.85;13.48;;;29.70;66.50;;;;;;5106635;28;20131;-75
2022/08/19 11:51:24;;;;;;;14.77;12.00;;;29.80;65.70;;;;;;5091298;28;20045;-74
2022/08/19 11:53:51;;;;;;;14.07;12.77;;;29.90;63.20;;;;;;5109175;28;20444;-73
2022/08/19 11:56:18;;;;;;;14.63;13.13;;;29.60;63.50;;;;;;5091178;28;20374;-74
2022/08/19 11:58:44;;;;;;;17.23;13.30;;;29.50;63.90;;;;;;5108575;28;20684;-74
2022/08/19 12:01:16;;;;;;;15.32;12.07;;;29.20;64.50;;;;;;5094500;28;20044;-74
2022/08/19 12:03:43;;;;;;;14.98;12.30;;;29.50;64.30;;;;;;5091171;28;20059;-75
2022/08/19 12:06:13;;;;;;;13.35;12.15;;;29.60;63.50;;;;;;5106446;28;20111;-75
2022/08/19 12:08:41;;;;;;;16.08;13.70;;;29.90;63.70;;;;;;5079176;28;20138;-74
2022/08/19 12:11:10;;;;;;;15.25;13.65;;;30.00;62.30;;;;;;5109564;28;20400;-73
2022/08/19 12:13:37;;;;;;;14.43;12.98;;;30.00;61.60;;;;;;5082382;28;20503;-74
2022/08/19 12:16:23;;;;;;;14.27;12.88;;;30.00;61.10;;;;;;5090764;28;20043;-75
2022/08/19 12:18:50;;;;;;;;;;;29.90;60.10;;;;;;5081386;28;20600;-74
2022/08/19 12:21:18;;;;;;;;;;;29.70;60.30;;;;;;5091314;28;20023;-74
2022/08/19 12:23:45;;;;;;;13.45;12.18;;;29.80;59.90;;;;;;5090702;28;19929;-74
2022/08/19 12:26:11;;;;;;;13.95;11.40;;;29.80;59.40;;;;;;5091230;28;20066;-74
2022/08/19 12:28:38;;;;;;;14.55;13.05;;;29.90;59.80;;;;;;5089906;28;20119;-74
2022/08/19 12:31:04;;;;;;;15.60;14.10;;;30.00;58.90;;;;;;5089876;28;20050;-73
2022/08/19 12:33:31;;;;;;;15.18;13.73;;;30.00;58.50;;;;;;5081688;28;20047;-71
2022/08/19 12:36:03;;;;;;;16.30;13.60;;;29.90;60.00;;;;;;5100085;28;20699;-72
2022/08/19 12:38:29;;;;;;;15.30;13.80;;;29.90;60.30;;;;;;5104901;28;20057;-72
2022/08/19 12:40:55;;;;;;;18.92;14.10;;;30.00;61.00;;;;;;5107534;27;20047;-73
2022/08/19 12:43:21;;;;;;;15.60;13.95;;;29.90;60.50;;;;;;5089812;28;20050;-72
2022/08/19 12:45:47;;;;;;;13.73;12.52;;;29.80;59.70;;;;;;5104469;28;20104;-72
2022/08/19 12:48:14;;;;;;;15.50;13.60;;;29.60;60.00;;;;;;5086308;28;20062;-73
2022/08/19 12:50:41;;;;;;;18.00;16.30;;;29.70;60.30;;;;;;5109125;28;20063;-74
2022/08/19 12:53:06;;;;;;;13.85;12.63;;;29.70;59.90;;;;;;5108810;28;20066;-72
2022/08/19 12:55:32;;;;;;;17.85;16.13;;;29.80;62.50;;;;;;5102476;28;20040;-73
2022/08/19 12:57:58;;;;;;;18.13;16.45;;;29.90;61.90;;;;;;5105547;28;20602;-72
2022/08/19 13:00:23;;;;;;;16.63;15.07;;;29.90;61.70;;;;;;5105557;28;20047;-72
2022/08/19 13:02:51;;;;;;;16.15;14.57;;;30.00;61.90;;;;;;5106717;28;20043;-72
2022/08/19 13:05:23;;;;;;;15.25;13.77;;;29.80;61.20;;;;;;5081752;28;20567;-71